• Join FlightAware (Why Join?)
  • Login
  • US Flag 
08:29PM EDT


 

Airport Tracker/Info


-or-


 

Live Flight TrackerFlight Track Log ✈ N510SR ✈ 22-Sep-2013 ✈ KTEB - KOPF

Flight Track Log - Related Links

Times and Time Zones

All times are in EDT time to prevent confusion due to time zone crossing. See the N510SR flight status page for this flight to view local times or setup timezone preferences in your user account.

Time Position Orientation Groundspeed Altitude Reporting Facility
EDT Latitude Longitude Course Direction KTS MPH feet Rate Location/Type
11:24AM 40.9000 -74.0333 224° Southwest 197 227 2,000  Level New York TRACON
11:25AM 40.9167 -74.0667 303° West 231 266 2,800 2,040 Climbing New York TRACON
11:26AM 40.9000 -74.1500 255° West 244 281 5,900 1,920 Climbing New York TRACON
11:27AM 40.8333 -74.1833 201° Southwest 256 295 6,700 1,260 Climbing New York TRACON
11:28AM 40.7667 -74.2167 201° Southwest 277 319 8,500 2,400 Climbing New York TRACON
11:29AM 40.3148 -74.3295 224° Southwest  Level Estimated
11:29AM 40.6833 -74.2333 189° South 282 325 11,500  Level New York TRACON
11:30AM 40.5833 -74.2333 180° South 359 413 13,200 2,100 Climbing New York TRACON
11:31AM 40.4314 -74.2392 182° South 411 473 17,000 1,440 Climbing New York Center
11:32AM 40.3106 -74.2439 182° South 406 467 17,000  Level New York Center
11:33AM 40.2000 -74.2492 182° South 400 460 17,000 1,380 Level New York Center
11:35AM 40.0167 -74.2803 187° South 398 458 21,200 2,220 Climbing Washington Center
11:36AM 39.8967 -74.3556 206° Southwest 398 458 23,800 1,740 Climbing Washington Center
11:37AM 39.8081 -74.4464 218° Southwest 403 464 24,800 1,380 Climbing Washington Center
11:38AM 39.7278 -74.5500 225° Southwest 408 470 26,600 1,560 Climbing Washington Center
11:39AM 39.6475 -74.6592 226° Southwest 413 475 28,000 1,620 Climbing Washington Center
11:40AM 39.5647 -74.7678 225° Southwest 418 481 29,900 2,280 Climbing Washington Center
11:41AM 39.4800 -74.8631 221° Southwest 413 475 32,600 2,280 Climbing Washington Center
11:42AM 39.3867 -74.9283 208° Southwest 403 464 34,600 1,680 Climbing Washington Center
11:43AM 39.2847 -74.9883 204° Southwest 398 458 36,000 1,380 Climbing Washington Center
11:44AM 39.1725 -75.0533 204° Southwest 398 458 37,500 1,380 Climbing Washington Center
11:45AM 39.0750 -75.1183 207° Southwest 398 458 38,900 1,200 Climbing Washington Center
11:46AM 38.9772 -75.1778 205° Southwest 398 458 40,000 1,140 Climbing Washington Center
11:47AM 38.8753 -75.2397 205° Southwest 404 465 41,200 960 Climbing Washington Center
11:48AM 38.7817 -75.3042 208° Southwest 399 459 42,000 780 Climbing Washington Center
11:49AM 38.6817 -75.3631 205° Southwest 399 459 42,800 480 Climbing Washington Center
11:50AM 38.5797 -75.4217 204° Southwest 404 465 43,000 60 Climbing Washington Center
11:51AM 38.4775 -75.4831 205° Southwest 404 465 43,000  Level Washington Center
11:52AM 38.3753 -75.5547 209° Southwest 404 465 43,000  Level Washington Center
11:53AM 38.2836 -75.6050 203° Southwest 404 465 43,000  Level Washington Center
11:54AM 38.1772 -75.6658 204° Southwest 410 472 43,000  Level Washington Center
11:55AM 38.0750 -75.7367 209° Southwest 415 478 43,000  Level Washington Center
11:56AM 37.9539 -75.8078 205° Southwest 429 494 43,000 180 Level Washington Center
11:57AM 37.8558 -75.8628 204° Southwest 429 494 43,400  Climbing Washington Center
11:58AM 37.7367 -75.9383 207° Southwest 429 494 43,000 -240 Descending Washington Center
11:59AM 37.6303 -76.0036 206° Southwest 429 494 43,000  Level Washington Center
12:00PM 37.5236 -76.0683 206° Southwest 429 494 43,000  Level Washington Center
12:01PM 37.4147 -76.1356 206° Southwest 429 494 43,000  Level Washington Center
12:02PM 37.2997 -76.1950 202° Southwest 435 501 43,100  Climbing Washington Center
12:03PM 37.1889 -76.2592 205° Southwest 441 507 43,100  Level Washington Center
12:04PM 37.1031 -76.3106 206° Southwest 441 507 43,100  Level Washington Center
12:05PM 36.9817 -76.3797 204° Southwest 441 507 43,100  Level Washington Center
12:06PM 36.8750 -76.4461 206° Southwest 441 507 43,100  Level Washington Center
12:07PM 36.7639 -76.5097 205° Southwest 446 513 43,100 -60 Level Washington Center
12:08PM 36.6464 -76.5861 208° Southwest 446 513 43,000 -60 Descending Washington Center
12:09PM 36.5331 -76.6492 204° Southwest 446 513 43,000  Level Washington Center
12:10PM 36.4242 -76.7122 205° Southwest 446 513 43,000  Level Washington Center
12:11PM 36.3172 -76.7728 205° Southwest 446 513 43,000  Level Washington Center
12:12PM 36.2058 -76.8353 204° Southwest 441 507 43,000  Level Washington Center
12:13PM 36.0967 -76.8978 205° Southwest 441 507 43,000  Level Washington Center
12:14PM 35.9856 -76.9603 204° Southwest 441 507 43,000  Level Washington Center
12:15PM 35.8764 -77.0225 205° Southwest 441 507 43,000  Level Washington Center
12:16PM 35.7650 -77.0844 204° Southwest 447 514 43,000  Level Washington Center
12:17PM 35.6558 -77.1386 202° Southwest 439 505 43,100  Climbing Washington Center
12:18PM 35.5364 -77.1822 197° South 434 499 43,100  Level Washington Center
12:19PM 35.4189 -77.2258 197° South 446 513 43,100  Level Washington Center
12:20PM 35.2972 -77.2692 196° South 451 519 43,100  Level Washington Center
12:21PM 35.1775 -77.3150 197° South 451 519 43,100  Level Washington Center
12:22PM 35.0581 -77.3581 196° South 452 520 43,100  Level Washington Center
12:23PM 34.9364 -77.4061 198° South 452 520 43,100  Level Washington Center
12:24PM 34.8397 -77.4419 197° South 452 520 43,100 -60 Level Washington Center
12:25PM 34.7097 -77.4919 198° South 452 520 43,000 -60 Descending Washington Center
12:26PM 34.5878 -77.5369 197° South 452 520 43,000  Level Washington Center
12:27PM 34.4703 -77.5797 197° South 452 520 43,100  Climbing Washington Center
12:28PM 34.3486 -77.6244 197° South 457 526 43,000 -60 Descending Washington Center
12:29PM 34.2289 -77.6667 196° South 457 526 43,000  Level Washington Center
12:30PM 34.0603 -77.7267 196° South 480 552 43,100  Climbing Jacksonville Center
12:31PM 33.9408 -77.7661 195° South 453 521 43,100  Level Jacksonville Center
12:32PM 33.8219 -77.8156 199° South 455 524 43,100  Level Jacksonville Center
12:33PM 33.7006 -77.8575 196° South 449 517 43,100 -60 Level Jacksonville Center
12:34PM 33.5894 -77.8964 196° South 455 524 43,000 -60 Descending Jacksonville Center
12:35PM 33.4700 -77.9403 197° South 455 524 43,000  Level Jacksonville Center
12:36PM 33.3528 -77.9817 196° South 449 517 43,000  Level Jacksonville Center
12:37PM 33.2314 -78.0256 197° South 456 525 43,000  Level Jacksonville Center
12:38PM 33.1119 -78.0694 197° South 456 525 43,000  Level Jacksonville Center
12:39PM 32.9903 -78.1081 195° South 456 525 43,000  Level Jacksonville Center
12:40PM 32.8689 -78.1517 197° South 456 525 43,000  Level Jacksonville Center
12:41PM 32.7494 -78.1975 198° South 450 518 43,000  Level Jacksonville Center
12:42PM 32.6300 -78.2381 196° South 450 518 43,000  Level Jacksonville Center
12:43PM 32.5103 -78.2789 196° South 450 518 43,000  Level Jacksonville Center
12:44PM 32.3908 -78.3192 196° South 450 518 43,000  Level Jacksonville Center
12:45PM 32.2714 -78.3644 198° South 450 518 43,000  Level Jacksonville Center
12:46PM 32.1475 -78.4000 194° South 450 518 43,000  Level Jacksonville Center
12:47PM 32.0258 -78.4478 198° South 455 524 43,000  Level Jacksonville Center
12:48PM 31.9039 -78.4831 194° South 455 524 43,000  Level Jacksonville Center
12:49PM 31.7844 -78.5278 198° South 455 524 43,000  Level Jacksonville Center
12:50PM 31.6583 -78.5656 194° South 455 524 43,000  Level Jacksonville Center
12:51PM 31.5433 -78.6194 202° Southwest 448 516 43,000  Level Jacksonville Center
12:52PM 31.4153 -78.6594 195° South 454 522 43,000  Level Jacksonville Center
12:53PM 31.2936 -78.7039 197° South 463 533 43,000  Level Jacksonville Center
12:54PM 31.1633 -78.7411 194° South 470 541 43,000  Level Jacksonville Center
12:55PM 31.0394 -78.7806 195° South 470 541 43,000  Level Jacksonville Center
12:56PM 30.9156 -78.8297 199° South 470 541 43,000  Level Jacksonville Center
12:59PM 30.6239 -78.9281 196° South 469 540 43,000  Level Miami Center
01:00PM 30.4939 -78.9711 196° South 468 539 43,000  Level Miami Center
01:01PM 30.3725 -79.0119 196° South 473 544 43,000  Level Miami Center
01:02PM 30.2406 -79.0453 192° South 478 550 43,000  Level Miami Center
01:03PM 30.1108 -79.0786 193° South 478 550 43,000  Level Miami Center
01:04PM 29.9853 -79.1169 195° South 472 543 43,100 -120 Climbing Miami Center
01:05PM 29.8556 -79.1453 191° South 472 543 42,800 -780 Descending Miami Center
01:06PM 29.7278 -79.1831 194° South 472 543 41,600 -1,200 Descending Miami Center
01:07PM 29.6000 -79.2089 190° South 472 543 40,400 -780 Descending Miami Center
01:08PM 29.4975 -79.2331 192° South 470 541 40,100 -180 Descending Miami Center
01:09PM 29.3528 -79.2728 193° South 469 540 40,100  Level Miami Center
01:10PM 29.2250 -79.3033 192° South 469 540 40,100  Level Miami Center
01:11PM 29.0994 -79.3383 194° South 469 540 40,100 -60 Level Miami Center
01:12PM 28.9758 -79.3689 192° South 469 540 40,000 -60 Descending Miami Center
01:13PM 28.8542 -79.3992 192° South 457 526 40,000  Level Miami Center
01:14PM 28.7200 -79.4317 192° South 450 518 40,000  Level Miami Center
01:15PM 28.5964 -79.4619 192° South 450 518 40,000  Level Miami Center
01:16PM 28.4747 -79.4922 192° South 450 518 40,000 -120 Level Miami Center
01:17PM 28.3531 -79.5225 192° South 450 518 39,800 -120 Descending Miami Center
01:18PM 28.2294 -79.5525 192° South 450 518 39,800 -60 Level Miami Center
01:19PM 28.1058 -79.5800 191° South 450 518 39,700 -1,200 Descending Miami Center
01:20PM 27.9819 -79.6125 193° South 450 518 37,400 -2,400 Descending Miami Center
01:21PM 27.8625 -79.6400 192° South 455 524 35,000 -2,400 Descending Miami Center
01:22PM 27.7514 -79.6678 192° South 449 517 32,600 -2,400 Descending Miami Center
01:23PM 27.6256 -79.6975 192° South 461 531 30,200 -2,640 Descending Miami Center
01:24PM 27.4850 -79.7317 192° South 466 536 27,400 -2,640 Descending Miami Center
01:25PM 27.3528 -79.7539 188° South 473 544 25,000 -2,220 Descending Miami Center
01:26PM 27.2214 -79.7461 177° South 481 554 23,000 -2,100 Descending Miami Center
01:27PM 27.1175 -79.7178 166° South 443 510 20,900 -2,100 Descending Miami Center
01:28PM 27.0117 -79.6850 165° South 415 478 18,900 -2,100 Descending Miami Center
01:29PM 26.9017 -79.6589 168° South 381 438 16,700 -1,980 Descending Miami Center
01:30PM 26.8033 -79.6636 182° South 359 413 15,000 -1,800 Descending Miami Center
01:30PM 26.7656 -79.6767 197° South 339 390 14,300 -1,740 Descending Miami Center
01:31PM 26.7150 -79.7011 203° Southwest 347 399 13,300 -1,620 Descending Miami Center
01:31PM 26.7022 -79.7100 212° Southwest 322 371 13,000 -1,320 Descending Miami Center
01:32PM 26.6433 -79.7342 200° South 323 372 12,000 -1,440 Descending Miami Center
01:32PM 26.6136 -79.7519 208° Southwest 297 342 11,400 -1,740 Descending Miami Center
01:33PM 26.5608 -79.7739 200° South 308 354 10,300 -1,560 Descending Miami Center
01:33PM 26.5439 -79.7850 210° Southwest 291 335 10,000 -1,140 Descending Miami Center
01:34PM 26.4956 -79.8047 200° South 297 342 9,200 -1,380 Descending Miami Center
01:34PM 26.4703 -79.8203 209° Southwest 282 325 8,600 -1,140 Descending Miami Center
01:35PM 26.4156 -79.8422 200° South 292 336 8,100 -660 Descending Miami Center
01:35PM 26.4050 -79.8489 209° Southwest 277 319 8,000 -120 Descending Miami Center
01:36PM 26.3581 -79.8847 214° Southwest 286 329 8,000  Level Miami Center
01:36PM 26.3411 -79.9006 220° Southwest 281 323 8,000 -900 Level Miami Center
01:37PM 26.2842 -79.9269 203° Southwest 281 323 7,100 -1,200 Descending Miami Center
01:37PM 26.2694 -79.9289 187° South 274 315 6,800 -1,320 Descending Miami Center
01:38PM 26.2133 -79.9206 172° South 257 296 5,800 -1,320 Descending Miami Center
01:38PM 26.1883 -79.9200 179° South 275 316 5,500 -1,200 Descending Miami Center
01:39PM 26.1361 -79.9117 172° South 263 303 4,600 -1,200 Descending Miami Center
01:39PM 26.1153 -79.9156 190° South 261 300 4,300 -600 Descending Miami Center
01:40PM 26.0675 -79.8983 162° South 263 303 4,000 -300 Descending Miami Center
01:40PM 26.0489 -79.8956 172° South 249 287 4,000 -1,140 Level Miami Center
01:41PM 25.9856 -79.9286 205° Southwest 251 289 2,500 -1,080 Descending Miami Center
01:42PM 25.9675 -79.9836 250° West 240 276 2,000 -360 Descending Miami Center
01:43PM 25.9406 -80.0683 251° West 237 273 1,900 -180 Descending Miami Center
01:44PM 25.9206 -80.1303 250° West 197 227 1,600 -180 Descending Miami Center
01:45PM 25.9150 -80.1878 264° West 167 192 1,600 -480 Level Miami Center
01:46PM 25.9117 -80.2383 266° West 157 181 700 -900 Descending Miami Center
01:48PM 25.9000 -80.2667 245° Southwest  Level FlightAware Approximate
01:55PM 25.9074 -80.2782 245° Southwest  Level Estimated